createdAt,value
2023-03-29T00:01:07.552Z,8.90
2023-03-29T00:04:10.341Z,4.88
2023-03-29T00:07:14.274Z,2.25
2023-03-29T00:10:16.336Z,10.00
2023-03-29T00:13:18.689Z,1.67
2023-03-29T00:16:20.889Z,6.65
2023-03-29T00:19:23.200Z,6.70
2023-03-29T00:22:25.895Z,4.43
2023-03-29T00:25:27.998Z,6.63
2023-03-29T00:28:30.245Z,5.22
2023-03-29T00:31:32.455Z,7.18
2023-03-29T00:34:36.272Z,7.15
2023-03-29T00:37:39.759Z,5.10
2023-03-29T00:40:44.410Z,4.18
2023-03-29T00:44:04.696Z,5.60
2023-03-29T00:47:07.321Z,8.80
2023-03-29T00:50:16.988Z,4.30
2023-03-29T00:53:32.150Z,9.60
2023-03-29T00:56:38.758Z,8.98
2023-03-29T00:59:45.220Z,2.15
2023-03-29T01:02:51.203Z,3.97
2023-03-29T01:06:07.715Z,4.30
2023-03-29T01:09:14.729Z,6.03
2023-03-29T01:12:23.176Z,8.23
2023-03-29T01:15:28.312Z,7.57
2023-03-29T01:18:33.778Z,5.53
2023-03-29T01:21:43.814Z,4.50
2023-03-29T01:25:01.461Z,8.80
2023-03-29T01:28:10.104Z,12.40
2023-03-29T01:31:30.227Z,7.40
2023-03-29T01:34:43.859Z,6.88
2023-03-29T01:37:53.026Z,12.30
2023-03-29T01:40:55.148Z,3.92
2023-03-29T01:44:03.502Z,4.63
2023-03-29T01:47:34.278Z,4.18
2023-03-29T01:50:39.475Z,2.63
2023-03-29T01:53:50.310Z,4.25
2023-03-29T01:56:53.312Z,8.40
2023-03-29T01:59:57.918Z,7.55
2023-03-29T02:03:05.976Z,8.15
2023-03-29T02:06:15.625Z,5.70
2023-03-29T02:09:17.933Z,2.97
2023-03-29T02:12:20.884Z,4.15
2023-03-29T02:15:23.689Z,5.18
2023-03-29T02:18:26.372Z,5.47
2023-03-29T02:21:36.405Z,5.47
2023-03-29T02:24:41.033Z,5.57
2023-03-29T02:27:43.502Z,6.65
2023-03-29T02:30:57.236Z,5.25
2023-03-29T02:34:16.096Z,5.67
2023-03-29T02:37:20.259Z,6.45
2023-03-29T02:40:24.621Z,10.70
2023-03-29T02:43:32.588Z,6.15
2023-03-29T02:46:35.175Z,19.52
2023-03-29T02:49:37.262Z,9.63
2023-03-29T02:52:44.959Z,6.43
2023-03-29T02:55:48.784Z,6.25
2023-03-29T02:58:51.038Z,14.68
2023-03-29T03:01:53.735Z,10.32
2023-03-29T03:04:56.015Z,7.70
2023-03-29T03:07:58.610Z,7.03
2023-03-29T03:11:00.921Z,6.28
2023-03-29T03:14:03.164Z,8.55
2023-03-29T03:17:05.203Z,11.45
2023-03-29T03:20:13.320Z,9.80
2023-03-29T03:23:15.395Z,12.13
2023-03-29T03:26:18.292Z,10.10
2023-03-29T03:29:20.439Z,9.15
2023-03-29T03:32:22.948Z,10.40
2023-03-29T03:35:25.302Z,10.75
2023-03-29T03:38:29.508Z,15.10
2023-03-29T03:41:32.695Z,10.80
2023-03-29T03:44:34.721Z,10.35
2023-03-29T03:47:37.835Z,7.90
2023-03-29T03:50:40.850Z,6.87
2023-03-29T03:53:42.955Z,10.65
2023-03-29T03:56:47.518Z,9.73
2023-03-29T04:02:54.424Z,10.50
2023-03-29T04:05:56.705Z,15.60
2023-03-29T04:08:59.847Z,14.40
2023-03-29T04:12:01.936Z,14.18
2023-03-29T04:15:04.643Z,11.35
2023-03-29T04:18:08.325Z,7.95
2023-03-29T04:21:12.202Z,9.93
2023-03-29T04:24:14.399Z,11.23
2023-03-29T04:27:16.641Z,5.45
2023-03-29T04:30:18.797Z,10.55
2023-03-29T04:33:21.376Z,13.65
2023-03-29T04:36:23.607Z,8.60
2023-03-29T04:39:33.137Z,17.80
2023-03-29T04:42:36.209Z,13.02
2023-03-29T04:45:38.552Z,8.95
2023-03-29T04:48:40.629Z,11.15
2023-03-29T04:51:44.197Z,13.68
2023-03-29T04:54:46.378Z,6.73
2023-03-29T04:57:48.427Z,8.25
2023-03-29T05:00:51.672Z,15.98
2023-03-29T05:03:55.156Z,11.52
2023-03-29T05:06:57.912Z,12.85
2023-03-29T05:10:00.024Z,12.38
2023-03-29T05:13:06.202Z,11.07
2023-03-29T05:16:08.946Z,14.02
2023-03-29T05:19:11.557Z,16.45
2023-03-29T05:22:14.281Z,16.10
2023-03-29T05:25:17.659Z,18.10
2023-03-29T05:28:19.944Z,21.13
2023-03-29T05:31:22.982Z,16.80
2023-03-29T05:34:25.743Z,11.40
2023-03-29T05:37:28.647Z,19.05
2023-03-29T05:40:32.171Z,12.95
2023-03-29T05:43:35.050Z,18.60
2023-03-29T05:46:37.036Z,20.88
2023-03-29T05:49:39.355Z,25.98
2023-03-29T05:52:41.435Z,18.27
2023-03-29T05:55:44.335Z,31.00
2023-03-29T05:58:46.853Z,15.02
2023-03-29T06:01:48.890Z,15.65
2023-03-29T06:04:51.983Z,13.25
2023-03-29T06:07:54.040Z,16.63
2023-03-29T06:11:05.378Z,11.55
2023-03-29T06:14:08.658Z,23.33
2023-03-29T06:17:10.914Z,13.60
2023-03-29T06:20:13.801Z,19.90
2023-03-29T06:23:15.854Z,19.10
2023-03-29T06:26:20.145Z,22.70
2023-03-29T06:29:22.323Z,26.13
2023-03-29T06:32:24.470Z,31.25
2023-03-29T06:35:27.174Z,20.92
2023-03-29T06:38:29.304Z,33.10
2023-03-29T06:41:32.675Z,17.80
2023-03-29T06:44:34.796Z,24.23
2023-03-29T06:47:36.900Z,19.52
2023-03-29T06:50:39.001Z,22.00
2023-03-29T06:53:41.581Z,15.05
2023-03-29T06:56:43.886Z,29.20
2023-03-29T06:59:46.683Z,29.65
2023-03-29T07:02:49.663Z,26.45
2023-03-29T07:05:53.127Z,27.50
2023-03-29T07:08:59.708Z,23.50
2023-03-29T07:12:01.785Z,26.83
2023-03-29T07:15:04.712Z,32.85
2023-03-29T07:18:08.383Z,26.52
2023-03-29T07:21:12.433Z,20.40
2023-03-29T07:24:14.691Z,25.13
2023-03-29T07:27:23.820Z,19.35
2023-03-29T07:30:31.012Z,37.47
2023-03-29T07:33:34.785Z,25.00
2023-03-29T07:39:40.854Z,29.55
2023-03-29T07:42:44.205Z,27.60
2023-03-29T07:45:46.858Z,17.02
2023-03-29T07:48:48.924Z,38.92
2023-03-29T07:51:55.117Z,25.33
2023-03-29T07:54:57.583Z,15.00
2023-03-29T07:57:59.856Z,19.95
2023-03-29T08:01:02.081Z,20.45
2023-03-29T08:04:04.970Z,31.70
2023-03-29T08:07:07.244Z,22.30
2023-03-29T08:10:17.631Z,22.25
2023-03-29T08:13:19.760Z,18.52
2023-03-29T08:16:21.879Z,36.72
2023-03-29T08:19:23.935Z,19.00
2023-03-29T08:22:26.026Z,21.98
2023-03-29T08:25:28.026Z,17.08
2023-03-29T08:28:30.985Z,18.60
2023-03-29T08:31:33.786Z,15.48
2023-03-29T08:34:36.287Z,17.40
2023-03-29T08:37:38.390Z,22.15
2023-03-29T08:40:40.661Z,15.23
2023-03-29T08:44:16.276Z,18.15
2023-03-29T08:47:41.705Z,25.13
2023-03-29T08:50:59.069Z,27.35
2023-03-29T08:54:47.522Z,22.23
2023-03-29T08:57:51.774Z,14.77
2023-03-29T09:00:56.970Z,22.45
2023-03-29T09:04:16.698Z,23.98
2023-03-29T09:07:18.896Z,13.52
2023-03-29T09:10:29.707Z,15.02
2023-03-29T09:13:34.514Z,24.30
2023-03-29T09:16:50.466Z,19.67
2023-03-29T09:20:07.498Z,19.05
2023-03-29T09:23:18.917Z,20.50
2023-03-29T09:26:38.342Z,23.33
2023-03-29T09:29:47.001Z,24.15
2023-03-29T09:33:06.160Z,21.20
2023-03-29T09:36:18.079Z,18.75
2023-03-29T09:39:22.273Z,20.42
2023-03-29T09:42:27.911Z,17.27
2023-03-29T09:45:30.493Z,15.10
2023-03-29T09:48:37.988Z,17.83
2023-03-29T09:51:42.196Z,17.70
2023-03-29T09:54:44.606Z,15.23
2023-03-29T09:57:46.962Z,20.88
2023-03-29T10:00:50.216Z,12.57
2023-03-29T10:03:53.644Z,11.95
2023-03-29T10:06:56.045Z,23.13
2023-03-29T10:09:58.053Z,13.88
2023-03-29T10:13:04.374Z,15.85
2023-03-29T10:16:09.376Z,16.83
2023-03-29T10:19:22.568Z,15.63
2023-03-29T10:22:29.859Z,17.75
2023-03-29T10:25:34.053Z,9.20
2023-03-29T10:28:38.094Z,6.80
2023-03-29T10:31:42.778Z,5.07
2023-03-29T10:34:47.877Z,37.67
2023-03-29T10:37:53.178Z,9.15
2023-03-29T10:41:04.264Z,8.45
2023-03-29T10:44:06.936Z,6.70
2023-03-29T10:47:20.871Z,13.07
2023-03-29T10:50:23.057Z,9.32
2023-03-29T10:53:32.580Z,15.35
2023-03-29T10:56:45.266Z,20.25
2023-03-29T11:00:23.815Z,5.72
2023-03-29T11:03:50.535Z,4.60
2023-03-29T11:07:00.845Z,4.18
2023-03-29T11:10:35.053Z,6.85
2023-03-29T11:13:53.921Z,7.53
2023-03-29T11:17:21.071Z,4.07
2023-03-29T11:20:33.537Z,7.40
2023-03-29T11:24:08.943Z,11.07
2023-03-29T11:27:10.928Z,5.93
2023-03-29T11:30:25.289Z,6.18
2023-03-29T11:33:47.890Z,6.65
2023-03-29T11:36:55.831Z,8.35
2023-03-29T11:40:15.344Z,12.90
2023-03-29T11:43:32.242Z,6.70
2023-03-29T11:46:41.726Z,3.83
2023-03-29T11:50:25.915Z,15.35
2023-03-29T11:53:42.795Z,8.30
2023-03-29T11:56:50.135Z,15.85
2023-03-29T12:00:05.471Z,12.18
2023-03-29T12:03:15.530Z,10.20
2023-03-29T12:06:23.148Z,9.55
2023-03-29T12:09:38.196Z,11.88
2023-03-29T12:12:55.492Z,8.43
2023-03-29T12:16:02.854Z,11.65
2023-03-29T12:19:40.292Z,8.00
2023-03-29T12:22:47.284Z,21.42
2023-03-29T12:26:04.529Z,13.77
2023-03-29T12:29:38.103Z,7.00
2023-03-29T12:33:22.128Z,8.35
2023-03-29T12:37:00.834Z,12.63
2023-03-29T12:40:22.917Z,21.88
2023-03-29T12:43:31.098Z,9.88
2023-03-29T12:46:34.661Z,11.57
2023-03-29T12:49:39.156Z,4.15
2023-03-29T12:52:42.986Z,21.73
2023-03-29T12:55:45.010Z,7.47
2023-03-29T12:59:06.708Z,7.63
2023-03-29T13:02:14.703Z,8.52
2023-03-29T13:05:35.138Z,10.90
2023-03-29T13:08:44.181Z,12.50
2023-03-29T13:12:19.326Z,6.53
2023-03-29T13:15:25.356Z,11.57
2023-03-29T13:18:49.377Z,8.77
2023-03-29T13:22:10.509Z,7.80
2023-03-29T13:25:50.465Z,8.52
2023-03-29T13:29:37.199Z,6.07
2023-03-29T13:32:57.562Z,10.65
2023-03-29T13:36:02.445Z,9.82
2023-03-29T13:39:07.310Z,13.63
2023-03-29T13:42:47.264Z,13.95
2023-03-29T13:45:58.483Z,12.02
2023-03-29T13:49:20.976Z,8.30
2023-03-29T13:52:39.364Z,11.85
2023-03-29T13:55:59.928Z,10.32
2023-03-29T13:59:18.978Z,13.05
2023-03-29T14:03:08.641Z,12.35
2023-03-29T14:06:14.607Z,14.60
2023-03-29T14:09:19.206Z,9.40
2023-03-29T14:12:21.477Z,16.88
2023-03-29T14:15:26.972Z,8.18
2023-03-29T14:18:42.520Z,10.05
2023-03-29T14:21:46.134Z,8.05
2023-03-29T14:24:53.211Z,12.80
2023-03-29T14:27:55.587Z,12.55
2023-03-29T14:30:57.632Z,13.45
2023-03-29T14:34:01.479Z,6.50
2023-03-29T14:37:04.362Z,12.40
2023-03-29T14:40:15.528Z,10.65
2023-03-29T14:43:27.233Z,8.65
2023-03-29T14:46:30.001Z,8.25
2023-03-29T14:49:32.570Z,12.38
2023-03-29T14:52:35.184Z,11.38
2023-03-29T14:55:38.969Z,12.32
2023-03-29T14:58:46.753Z,9.43
2023-03-29T15:01:48.968Z,12.60
2023-03-29T15:05:04.911Z,13.57
2023-03-29T15:08:12.895Z,8.68
2023-03-29T15:11:27.456Z,10.32
2023-03-29T15:14:38.207Z,5.80
2023-03-29T15:17:51.240Z,6.53
2023-03-29T15:20:54.878Z,10.95
2023-03-29T15:23:59.072Z,10.73
2023-03-29T15:27:15.475Z,11.35
2023-03-29T15:30:19.160Z,9.15
2023-03-29T15:33:23.474Z,14.63
2023-03-29T15:36:27.371Z,16.10
2023-03-29T15:39:29.889Z,7.90
2023-03-29T15:42:32.034Z,10.20
2023-03-29T15:45:34.160Z,9.20
2023-03-29T15:48:36.222Z,10.02
2023-03-29T15:51:38.489Z,7.90
2023-03-29T15:54:40.610Z,10.10
2023-03-29T15:57:47.286Z,11.40
2023-03-29T16:00:54.239Z,13.35
2023-03-29T16:03:59.383Z,8.52
2023-03-29T16:07:03.616Z,8.63
2023-03-29T16:10:06.581Z,20.85
2023-03-29T16:13:12.342Z,8.03
2023-03-29T16:16:14.427Z,12.25
2023-03-29T16:19:16.617Z,9.05
2023-03-29T16:22:18.803Z,10.85
2023-03-29T16:25:24.690Z,10.98
2023-03-29T16:28:26.706Z,13.27
2023-03-29T16:31:28.940Z,8.05
2023-03-29T16:34:31.389Z,9.23
2023-03-29T16:37:33.647Z,8.32
2023-03-29T16:40:36.493Z,8.27
2023-03-29T16:43:38.825Z,9.68
2023-03-29T16:46:41.697Z,7.72
2023-03-29T16:49:45.655Z,10.48
2023-03-29T16:55:51.086Z,13.63
2023-03-29T16:58:53.071Z,25.75
2023-03-29T17:01:55.235Z,8.98
2023-03-29T17:04:57.649Z,15.52
2023-03-29T17:07:59.858Z,10.45
2023-03-29T17:11:03.137Z,9.75
2023-03-29T17:14:05.173Z,8.10
2023-03-29T17:17:07.172Z,11.77
2023-03-29T17:20:12.571Z,9.95
2023-03-29T17:23:14.685Z,8.18
2023-03-29T17:26:16.730Z,11.25
2023-03-29T17:29:18.881Z,12.73
2023-03-29T17:32:20.889Z,10.68
2023-03-29T17:35:23.201Z,6.97
2023-03-29T17:38:26.872Z,14.48
2023-03-29T17:41:30.841Z,10.10
2023-03-29T17:47:36.525Z,10.27
2023-03-29T17:50:38.618Z,15.10
2023-03-29T17:53:40.683Z,14.05
2023-03-29T17:56:43.643Z,10.45
2023-03-29T17:59:45.640Z,12.48
2023-03-29T18:02:47.857Z,11.50
2023-03-29T18:05:49.981Z,10.27
2023-03-29T18:08:53.308Z,12.32
2023-03-29T18:11:55.510Z,15.57
2023-03-29T18:14:57.590Z,11.48
2023-03-29T18:17:59.722Z,14.07
2023-03-29T18:21:03.200Z,18.73
2023-03-29T18:24:05.295Z,10.57
2023-03-29T18:27:07.406Z,16.95
2023-03-29T18:30:10.004Z,17.08
2023-03-29T18:33:12.063Z,15.23
2023-03-29T18:36:14.763Z,15.00
2023-03-29T18:39:17.022Z,18.33
2023-03-29T18:42:21.945Z,16.67
2023-03-29T18:45:24.144Z,23.58
2023-03-29T18:48:26.535Z,14.23
2023-03-29T18:51:28.988Z,25.63
2023-03-29T18:54:31.543Z,31.90
2023-03-29T18:57:39.468Z,20.38
2023-03-29T19:00:42.491Z,26.40
2023-03-29T19:03:44.958Z,20.63
2023-03-29T19:06:49.415Z,22.02
2023-03-29T19:09:51.527Z,13.60
2023-03-29T19:12:53.502Z,25.83
2023-03-29T19:15:55.601Z,16.70
2023-03-29T19:18:57.610Z,16.98
2023-03-29T19:22:00.776Z,14.90
2023-03-29T19:25:05.755Z,10.98
2023-03-29T19:28:08.832Z,12.23
2023-03-29T19:31:10.960Z,24.52
2023-03-29T19:34:13.247Z,22.67
2023-03-29T19:37:17.031Z,17.08
2023-03-29T19:40:20.197Z,21.33
2023-03-29T19:43:22.322Z,20.27
2023-03-29T19:46:24.505Z,15.88
2023-03-29T19:49:27.573Z,14.35
2023-03-29T19:52:30.535Z,14.65
2023-03-29T19:55:32.559Z,18.75
2023-03-29T19:58:34.645Z,10.07
2023-03-29T20:01:39.454Z,15.25
2023-03-29T20:04:41.730Z,24.67
2023-03-29T20:07:44.112Z,15.05
2023-03-29T20:10:46.217Z,15.27
2023-03-29T20:13:48.231Z,11.50
2023-03-29T20:16:50.865Z,15.02
2023-03-29T20:19:54.075Z,12.77
2023-03-29T20:22:58.430Z,18.73
2023-03-29T20:26:03.293Z,11.07
2023-03-29T20:29:06.300Z,16.73
2023-03-29T20:32:17.123Z,18.70
2023-03-29T20:35:19.273Z,15.00
2023-03-29T20:38:22.072Z,13.25
2023-03-29T20:41:24.162Z,27.88
2023-03-29T20:44:28.503Z,21.13
2023-03-29T20:47:32.094Z,19.45
2023-03-29T20:50:34.257Z,10.88
2023-03-29T20:53:36.350Z,12.20
2023-03-29T20:56:42.318Z,16.40
2023-03-29T20:59:46.065Z,19.40
2023-03-29T21:02:48.232Z,18.50
2023-03-29T21:05:55.326Z,22.80
2023-03-29T21:08:57.541Z,19.10
2023-03-29T21:11:59.663Z,17.85
2023-03-29T21:15:02.507Z,23.50
2023-03-29T21:18:04.801Z,14.25
2023-03-29T21:21:08.433Z,15.07
2023-03-29T21:24:11.291Z,21.67
2023-03-29T21:27:13.347Z,22.27
2023-03-29T21:30:16.673Z,20.38
2023-03-29T21:33:18.759Z,17.85
2023-03-29T21:36:20.851Z,21.85
2023-03-29T21:39:28.446Z,16.73
2023-03-29T21:42:30.525Z,18.08
2023-03-29T21:45:32.776Z,25.73
2023-03-29T21:48:36.080Z,15.05
2023-03-29T21:51:38.213Z,17.45
2023-03-29T21:54:40.320Z,15.38
2023-03-29T21:57:42.533Z,19.42
2023-03-29T22:00:46.104Z,13.73
2023-03-29T22:03:48.635Z,19.98
2023-03-29T22:06:50.733Z,11.88
2023-03-29T22:09:52.740Z,24.45
2023-03-29T22:12:54.772Z,18.27
2023-03-29T22:16:01.400Z,38.92
2023-03-29T22:19:04.438Z,21.23
2023-03-29T22:22:06.800Z,22.67
2023-03-29T22:25:10.112Z,31.85
2023-03-29T22:28:13.704Z,19.65
2023-03-29T22:31:18.059Z,17.05
2023-03-29T22:37:25.182Z,20.38
2023-03-29T22:40:27.270Z,17.83
2023-03-29T22:43:29.370Z,21.70
2023-03-29T22:46:31.875Z,18.77
2023-03-29T22:49:34.073Z,16.17
2023-03-29T22:52:36.120Z,22.00
2023-03-29T22:55:39.202Z,23.52
2023-03-29T22:58:42.383Z,20.73
2023-03-29T23:01:44.516Z,22.80
2023-03-29T23:04:47.658Z,22.95
2023-03-29T23:07:49.812Z,14.90
2023-03-29T23:13:56.212Z,16.58
2023-03-29T23:16:58.369Z,20.67
2023-03-29T23:20:00.960Z,22.67
2023-03-29T23:23:03.110Z,27.88
2023-03-29T23:26:06.629Z,13.20
2023-03-29T23:32:12.522Z,22.73
2023-03-29T23:35:15.907Z,20.55
2023-03-29T23:38:18.105Z,15.27
2023-03-29T23:41:20.523Z,19.65
2023-03-29T23:44:22.783Z,19.88
2023-03-29T23:47:27.115Z,27.17
2023-03-29T23:53:32.178Z,24.83
2023-03-29T23:56:34.427Z,20.83
2023-03-29T23:59:38.018Z,18.30
